Time;durP1;ratioP1;P1;durP2;ratioP2;P2;SDS_P1;SDS_P2;PMS_P1;PMS_P2;Temp;Humidity;BMP_temperature;BMP_pressure;BME280_temperature;BME280_humidity;BME280_pressure;Samples;Min_cycle;Max_cycle;Signal;HPM_P1;HPM_P2
2021/01/18 00:01:57;;;;;;;229.07;82.87;;;;;;;-10.82;64.36;99476.03;2209858;80;21589;-76
2021/01/18 00:04:58;;;;;;;189.90;72.60;;;;;;;-10.90;64.36;99475.23;2209840;80;21122;-78
2021/01/18 00:07:59;;;;;;;186.83;69.37;;;;;;;-10.99;64.44;99467.61;2209756;81;21134;-77
2021/01/18 00:11:01;;;;;;;207.87;76.67;;;;;;;-11.05;64.55;99464.45;2209696;80;21245;-77
2021/01/18 00:14:04;;;;;;;219.20;75.70;;;;;;;-11.15;64.69;99465.48;2209664;81;21110;-77
2021/01/18 00:17:05;;;;;;;194.00;74.87;;;;;;;-11.17;64.84;99465.69;2209956;81;21280;-77
2021/01/18 00:20:06;;;;;;;198.50;73.73;;;;;;;-11.18;64.95;99461.38;2209796;80;21126;-77
2021/01/18 00:23:07;;;;;;;187.67;70.47;;;;;;;-11.19;64.90;99461.22;2209895;81;21177;-77
2021/01/18 00:26:08;;;;;;;166.70;63.50;;;;;;;-11.19;65.05;99466.26;2210059;81;21387;-77
2021/01/18 00:29:09;;;;;;;165.23;62.60;;;;;;;-11.26;64.99;99467.24;2200015;80;21162;-77
2021/01/18 00:32:10;;;;;;;177.80;67.33;;;;;;;-11.30;65.12;99460.05;2193857;81;21432;-77
2021/01/18 00:35:11;;;;;;;175.60;61.57;;;;;;;-11.29;65.10;99455.54;2194166;81;21142;-77
2021/01/18 00:38:12;;;;;;;182.60;69.13;;;;;;;-11.29;65.17;99450.50;2194515;81;21143;-77
2021/01/18 00:41:13;;;;;;;168.23;68.03;;;;;;;-11.28;65.22;99454.81;2194121;81;21567;-77
2021/01/18 00:44:15;;;;;;;187.07;70.40;;;;;;;-11.27;65.31;99452.48;2194271;81;21299;-77
2021/01/18 00:47:16;;;;;;;183.97;66.33;;;;;;;-11.29;65.26;99460.58;2194492;81;21098;-77
2021/01/18 00:50:17;;;;;;;176.30;66.13;;;;;;;-11.36;65.19;99464.08;2194300;81;21404;-76
2021/01/18 00:53:18;;;;;;;195.57;72.93;;;;;;;-11.37;65.23;99467.70;2194225;81;21118;-77
2021/01/18 00:56:19;;;;;;;185.70;67.83;;;;;;;-11.42;65.25;99467.58;2194978;81;21127;-77
2021/01/18 00:59:20;;;;;;;180.97;64.70;;;;;;;-11.45;65.25;99471.03;2194469;80;21398;-77
2021/01/18 01:02:21;;;;;;;200.10;71.53;;;;;;;-11.52;65.38;99470.75;2194094;81;21142;-77
2021/01/18 01:05:22;;;;;;;183.03;69.40;;;;;;;-11.51;65.41;99470.39;2194630;81;21138;-78
2021/01/18 01:08:24;;;;;;;192.90;72.27;;;;;;;-11.50;65.40;99466.77;2194312;81;21215;-78
2021/01/18 01:11:25;;;;;;;187.60;69.07;;;;;;;-11.45;65.47;99466.89;2194503;81;21150;-77
2021/01/18 01:14:26;;;;;;;169.07;63.57;;;;;;;-11.43;65.49;99454.45;2194320;81;21178;-77
2021/01/18 01:17:27;;;;;;;184.20;69.67;;;;;;;-11.38;65.39;99455.47;2194551;81;21138;-77
2021/01/18 01:20:28;;;;;;;184.60;69.50;;;;;;;-11.30;65.35;99462.58;2194272;81;21432;-77
2021/01/18 01:23:29;;;;;;;186.27;68.47;;;;;;;-11.26;65.21;99467.24;2194259;81;21186;-78
2021/01/18 01:26:30;;;;;;;187.70;71.90;;;;;;;-11.28;65.17;99459.48;2194198;81;21163;-78
2021/01/18 01:29:31;;;;;;;172.50;62.63;;;;;;;-11.21;65.14;99472.40;2194408;81;21460;-77
2021/01/18 01:32:32;;;;;;;187.13;66.03;;;;;;;-11.20;64.89;99466.63;2194246;81;21154;-78
2021/01/18 01:35:33;;;;;;;183.07;66.40;;;;;;;-11.21;64.93;99466.09;2194044;81;21130;-77
2021/01/18 01:38:35;;;;;;;179.00;67.10;;;;;;;-11.13;64.89;99468.16;2194658;81;21143;-77
2021/01/18 01:41:36;;;;;;;177.53;61.80;;;;;;;-11.09;64.74;99467.38;2194314;81;21432;-77
2021/01/18 01:44:37;;;;;;;174.50;67.33;;;;;;;-11.02;64.71;99471.07;2194179;81;21282;-77
2021/01/18 01:47:38;;;;;;;148.33;51.07;;;;;;;-10.95;64.71;99467.56;2194313;80;21400;-78
2021/01/18 01:50:39;;;;;;;149.77;58.00;;;;;;;-10.91;64.33;99468.77;2194088;81;21436;-77
2021/01/18 01:53:40;;;;;;;143.47;54.63;;;;;;;-10.94;64.30;99466.83;2194045;81;21204;-77
2021/01/18 01:56:41;;;;;;;177.73;63.13;;;;;;;-10.92;64.37;99474.55;2194515;81;21483;-77
2021/01/18 01:59:45;;;;;;;154.03;57.70;;;;;;;-10.98;64.29;99471.91;2194380;81;21099;-77
2021/01/18 02:02:46;;;;;;;169.47;63.33;;;;;;;-11.03;64.36;99471.80;2194014;81;21280;-77
2021/01/18 02:05:49;;;;;;;175.70;64.07;;;;;;;-11.01;64.55;99475.37;2194166;81;21142;-77
2021/01/18 02:08:50;;;;;;;176.90;63.80;;;;;;;-10.94;64.58;99480.33;2194128;81;21296;-77
2021/01/18 02:11:51;;;;;;;166.53;61.63;;;;;;;-10.95;64.28;99470.08;2194199;81;21208;-76
2021/01/18 02:14:52;;;;;;;164.93;64.87;;;;;;;-11.04;64.25;99481.73;2194148;81;21143;-77
2021/01/18 02:17:53;;;;;;;167.10;63.27;;;;;;;-11.15;64.43;99472.15;2194055;81;21149;-77
2021/01/18 02:20:54;;;;;;;166.63;63.40;;;;;;;-11.18;64.61;99466.78;2194100;81;21146;-78
2021/01/18 02:23:56;;;;;;;162.57;60.67;;;;;;;-11.16;64.66;99466.58;2194369;81;21416;-77
2021/01/18 02:26:57;;;;;;;148.60;54.67;;;;;;;-11.14;64.60;99467.27;2194319;81;21285;-79
2021/01/18 02:29:58;;;;;;;127.77;52.10;;;;;;;-11.14;64.74;99469.79;2196135;81;21178;-77
2021/01/18 02:32:59;;;;;;;114.37;41.97;;;;;;;-11.17;64.73;99461.02;2197373;81;21267;-77
2021/01/18 02:36:01;;;;;;;141.87;53.90;;;;;;;-11.18;64.90;99457.97;2197000;81;21138;-78
2021/01/18 02:39:02;;;;;;;134.17;52.17;;;;;;;-11.11;64.94;99459.13;2197079;81;21130;-78
2021/01/18 02:42:03;;;;;;;135.67;50.27;;;;;;;-11.01;65.01;99463.14;2196874;81;21181;-78
2021/01/18 02:45:07;;;;;;;93.03;37.00;;;;;;;-10.99;64.76;99460.05;2197231;81;21146;-78
2021/01/18 02:48:08;;;;;;;90.77;36.93;;;;;;;-11.00;64.86;99462.03;2197134;81;21099;-78
2021/01/18 02:51:09;;;;;;;89.23;35.37;;;;;;;-11.08;64.86;99465.75;2197035;81;21094;-77
2021/01/18 02:54:10;;;;;;;95.93;38.67;;;;;;;-11.13;65.04;99460.23;2196675;81;21095;-78
2021/01/18 02:57:11;;;;;;;86.60;34.23;;;;;;;-11.17;65.04;99451.82;2196506;81;21095;-77
2021/01/18 03:00:12;;;;;;;89.47;37.73;;;;;;;-11.20;65.29;99461.59;2196883;81;21261;-77
2021/01/18 03:03:17;;;;;;;92.50;34.77;;;;;;;-11.30;65.33;99462.20;2196568;81;21158;-77
2021/01/18 03:06:18;;;;;;;88.37;34.85;;;;;;;-11.37;65.53;99458.88;2197165;81;21139;-77
2021/01/18 03:09:19;;;;;;;84.97;34.77;;;;;;;-11.38;65.45;99460.87;2196566;81;21432;-76
2021/01/18 03:12:20;;;;;;;86.77;33.83;;;;;;;-11.42;65.58;99459.66;2196108;80;21136;-77
2021/01/18 03:15:22;;;;;;;78.20;30.40;;;;;;;-11.42;65.59;99451.20;2196978;81;21157;-78
2021/01/18 03:18:23;;;;;;;74.33;29.20;;;;;;;-11.41;65.79;99451.73;2196999;81;21393;-78
2021/01/18 03:21:24;;;;;;;91.13;35.23;;;;;;;-11.47;65.82;99457.02;2196823;81;21110;-77
2021/01/18 03:24:25;;;;;;;75.83;30.07;;;;;;;-11.57;65.93;99454.25;2196760;81;21190;-77
2021/01/18 03:27:26;;;;;;;73.83;28.67;;;;;;;-11.55;66.25;99462.87;2196733;81;21160;-78
2021/01/18 03:30:27;;;;;;;73.67;27.63;;;;;;;-11.58;66.28;99461.28;2194506;81;21187;-77
2021/01/18 03:33:28;;;;;;;68.17;29.63;;;;;;;-11.66;66.43;99455.44;2194157;81;21540;-78
2021/01/18 03:36:29;;;;;;;87.47;31.80;;;;;;;-11.69;66.37;99456.73;2194062;80;21155;-77
2021/01/18 03:39:30;;;;;;;78.30;31.60;;;;;;;-11.69;66.48;99456.36;2194128;81;21147;-77
2021/01/18 03:42:31;;;;;;;75.27;30.90;;;;;;;-11.68;66.77;99452.22;2193595;81;21293;-77
2021/01/18 03:45:32;;;;;;;76.97;30.83;;;;;;;-11.70;66.71;99457.09;2194095;81;21261;-78
2021/01/18 03:48:33;;;;;;;65.23;28.37;;;;;;;-11.67;66.71;99452.38;2194034;81;21143;-79
2021/01/18 03:51:34;;;;;;;73.67;30.30;;;;;;;-11.69;66.80;99456.73;2194032;81;21147;-77
2021/01/18 03:54:36;;;;;;;80.93;30.97;;;;;;;-11.71;66.75;99454.05;2193421;81;21432;-77
2021/01/18 03:57:36;;;;;;;52.73;21.27;;;;;;;-11.64;66.91;99455.23;2193016;81;21106;-78
2021/01/18 04:00:38;;;;;;;77.50;29.13;;;;;;;-11.68;66.71;99448.44;2193597;81;21156;-77
2021/01/18 04:03:39;;;;;;;78.40;32.83;;;;;;;-11.65;66.68;99442.47;2193711;81;21767;-77
2021/01/18 04:06:40;;;;;;;78.87;33.00;;;;;;;-11.59;66.73;99445.64;2193357;81;21130;-78
2021/01/18 04:09:41;;;;;;;68.20;29.93;;;;;;;-11.61;66.55;99445.48;2194015;81;21142;-78
2021/01/18 04:12:42;;;;;;;79.40;31.40;;;;;;;-11.60;66.60;99444.75;2194575;81;21208;-79
2021/01/18 04:15:43;;;;;;;68.47;29.17;;;;;;;-11.64;66.44;99439.22;2194443;81;21139;-78
2021/01/18 04:18:44;;;;;;;81.70;30.50;;;;;;;-11.63;66.56;99435.97;2194372;81;21139;-77
2021/01/18 04:21:48;;;;;;;79.20;32.07;;;;;;;-11.69;66.72;99434.95;2194775;81;21142;-77
2021/01/18 04:24:49;;;;;;;72.60;28.17;;;;;;;-11.70;66.73;99433.17;2193696;81;21099;-78
2021/01/18 04:27:50;;;;;;;75.47;30.37;;;;;;;-11.57;66.89;99439.14;2194144;81;21166;-78
2021/01/18 04:30:51;;;;;;;63.20;23.80;;;;;;;-11.42;67.16;99429.78;2207521;81;21174;-79
2021/01/18 04:33:52;;;;;;;60.50;24.70;;;;;;;-11.33;66.65;99425.72;2210196;80;21146;-78
2021/01/18 04:36:53;;;;;;;65.90;25.90;;;;;;;-11.28;66.67;99429.61;2210682;81;21276;-77
2021/01/18 04:39:54;;;;;;;138.23;65.50;;;;;;;-11.18;66.49;99432.39;2209691;80;21249;-77
2021/01/18 04:42:56;;;;;;;68.03;27.63;;;;;;;-11.06;66.55;99434.03;2208396;80;21281;-77
2021/01/18 04:45:57;;;;;;;64.03;26.07;;;;;;;-11.05;66.05;99434.20;2208029;81;21249;-77
2021/01/18 04:48:58;;;;;;;61.90;22.13;;;;;;;-11.04;66.13;99430.05;2206942;81;21261;-78
2021/01/18 04:51:59;;;;;;;62.03;24.43;;;;;;;-10.98;65.95;99433.20;2207738;81;21237;-78
2021/01/18 04:55:00;;;;;;;63.13;24.53;;;;;;;-11.08;65.52;99440.55;2206221;81;21260;-78
2021/01/18 04:58:01;;;;;;;67.63;25.97;;;;;;;-11.15;65.51;99440.27;2206449;81;21296;-78
2021/01/18 05:01:02;;;;;;;60.87;21.60;;;;;;;-11.18;65.70;99441.21;2206542;81;21890;-78
2021/01/18 05:04:03;;;;;;;95.67;32.33;;;;;;;-11.15;65.67;99436.49;2207344;81;21276;-78
2021/01/18 05:07:04;;;;;;;61.73;22.77;;;;;;;-11.11;65.32;99433.92;2206982;81;21335;-77
2021/01/18 05:10:05;;;;;;;63.23;25.57;;;;;;;-11.16;65.38;99432.19;2206345;81;21142;-78
2021/01/18 05:13:06;;;;;;;71.77;29.90;;;;;;;-11.20;65.62;99426.30;2208528;81;21169;-78
2021/01/18 05:16:08;;;;;;;71.37;29.73;;;;;;;-11.17;65.48;99421.94;2207600;80;21137;-78
2021/01/18 05:19:09;;;;;;;74.57;29.33;;;;;;;-11.09;65.69;99423.27;2207206;81;21602;-78
2021/01/18 05:22:10;;;;;;;71.87;29.63;;;;;;;-10.99;65.80;99415.92;2206995;81;21252;-78
2021/01/18 05:25:13;;;;;;;69.70;27.93;;;;;;;-10.91;65.54;99425.53;2206607;81;21276;-78
2021/01/18 05:28:14;;;;;;;66.30;28.80;;;;;;;-10.84;65.60;99427.95;2208231;81;21181;-78
2021/01/18 05:31:15;;;;;;;73.30;29.20;;;;;;;-10.83;64.99;99428.48;2207642;80;21289;-78
2021/01/18 05:34:16;;;;;;;74.53;26.83;;;;;;;-10.83;64.80;99424.70;2209360;80;21130;-78
2021/01/18 05:37:18;;;;;;;57.67;24.17;;;;;;;-10.83;64.82;99422.55;2208533;81;21149;-77
2021/01/18 05:40:19;;;;;;;74.73;29.27;;;;;;;-10.85;64.59;99416.08;2208577;80;21593;-78
2021/01/18 05:43:20;;;;;;;68.03;28.23;;;;;;;-10.95;64.63;99418.02;2207417;81;21541;-78
2021/01/18 05:46:21;;;;;;;59.33;24.93;;;;;;;-10.90;64.79;99420.13;2207191;81;21245;-78
2021/01/18 05:49:22;;;;;;;59.33;25.67;;;;;;;-10.90;64.50;99424.80;2207397;81;21118;-79
2021/01/18 05:52:23;;;;;;;75.93;29.23;;;;;;;-10.90;64.47;99430.21;2207852;81;21866;-78
2021/01/18 05:55:25;;;;;;;73.60;29.73;;;;;;;-10.90;64.44;99425.17;2204822;81;21248;-78
2021/01/18 05:58:26;;;;;;;81.63;33.00;;;;;;;-10.82;64.75;99426.48;2205870;81;21916;-76
2021/01/18 06:01:27;;;;;;;84.70;31.97;;;;;;;-10.78;64.83;99422.28;2204854;81;21237;-76
2021/01/18 06:04:28;;;;;;;78.23;29.67;;;;;;;-10.75;64.48;99425.48;2205791;80;21328;-77
2021/01/18 06:07:29;;;;;;;88.13;31.90;;;;;;;-10.79;64.44;99429.69;2204978;81;21902;-77
2021/01/18 06:10:30;;;;;;;70.33;26.50;;;;;;;-10.76;64.74;99432.16;2204972;80;21232;-77
2021/01/18 06:13:32;;;;;;;91.10;33.40;;;;;;;-10.73;64.61;99432.84;2204077;81;21829;-77
2021/01/18 06:16:33;;;;;;;84.90;32.80;;;;;;;-10.73;64.55;99431.58;2205614;81;21256;-77
2021/01/18 06:19:34;;;;;;;92.27;36.20;;;;;;;-10.70;64.47;99428.11;2204696;81;21245;-77
2021/01/18 06:22:35;;;;;;;84.23;35.10;;;;;;;-10.68;64.10;99427.90;2205448;81;21296;-77
2021/01/18 06:25:36;;;;;;;85.10;32.77;;;;;;;-10.70;64.24;99431.52;2205913;81;21260;-77
2021/01/18 06:28:37;;;;;;;89.83;33.97;;;;;;;-10.74;63.73;99435.73;2205942;81;21240;-76
2021/01/18 06:31:39;;;;;;;81.50;33.40;;;;;;;-10.80;63.69;99440.52;2203765;81;21292;-76
2021/01/18 06:34:40;;;;;;;94.27;36.00;;;;;;;-10.74;64.05;99444.92;2206586;80;21264;-76
2021/01/18 06:37:41;;;;;;;94.37;36.93;;;;;;;-10.65;64.10;99442.09;2205691;81;21594;-77
2021/01/18 06:40:42;;;;;;;111.50;40.53;;;;;;;-10.65;64.12;99446.77;2205508;81;21253;-77
2021/01/18 06:43:43;;;;;;;99.17;39.10;;;;;;;-10.60;64.34;99456.06;2205243;81;21300;-76
2021/01/18 06:46:44;;;;;;;93.70;36.73;;;;;;;-10.54;63.82;99453.28;2205931;80;21559;-76
2021/01/18 06:49:45;;;;;;;92.10;34.83;;;;;;;-10.54;63.77;99459.22;2205510;81;21245;-77
2021/01/18 06:52:47;;;;;;;96.47;36.87;;;;;;;-10.50;63.52;99452.86;2205266;81;21256;-77
2021/01/18 06:55:48;;;;;;;101.17;37.37;;;;;;;-10.51;63.80;99459.90;2205736;80;21269;-77
2021/01/18 06:58:49;;;;;;;96.47;37.63;;;;;;;-10.52;63.30;99461.90;2205501;81;21253;-76
2021/01/18 07:01:50;;;;;;;79.87;30.13;;;;;;;-10.59;63.46;99470.47;2205592;80;21249;-78
2021/01/18 07:04:51;;;;;;;91.47;35.27;;;;;;;-10.55;63.64;99472.94;2206105;81;21287;-77
2021/01/18 07:07:53;;;;;;;108.43;39.43;;;;;;;-10.62;63.54;99480.25;2205255;81;21257;-77
2021/01/18 07:10:54;;;;;;;91.80;34.27;;;;;;;-10.55;63.68;99481.77;2206138;80;21586;-77
2021/01/18 07:13:55;;;;;;;105.27;39.57;;;;;;;-10.51;63.49;99483.50;2205536;80;21350;-76
2021/01/18 07:16:56;;;;;;;88.70;33.27;;;;;;;-10.49;63.45;99486.19;2205699;81;21264;-77
2021/01/18 07:19:57;;;;;;;109.63;38.07;;;;;;;-10.53;63.12;99486.23;2206167;80;21264;-76
2021/01/18 07:22:58;;;;;;;97.80;35.57;;;;;;;-10.58;63.24;99482.34;2206097;81;21300;-78
2021/01/18 07:25:59;;;;;;;75.07;29.43;;;;;;;-10.55;63.50;99483.92;2206203;81;21269;-78
2021/01/18 07:29:00;;;;;;;94.03;35.70;;;;;;;-10.54;63.20;99477.25;2206697;81;21888;-79
2021/01/18 07:32:01;;;;;;;92.03;36.03;;;;;;;-10.62;63.38;99477.72;2206152;80;21337;-78
2021/01/18 07:35:03;;;;;;;104.63;36.47;;;;;;;-10.56;63.51;99483.77;2206837;81;21261;-79
2021/01/18 07:38:04;;;;;;;84.73;32.50;;;;;;;-10.44;63.70;99482.13;2206908;81;21281;-78
2021/01/18 07:41:05;;;;;;;103.20;40.40;;;;;;;-10.42;63.07;99488.23;2206397;81;21264;-78
2021/01/18 07:44:06;;;;;;;81.43;31.30;;;;;;;-10.37;63.24;99478.64;2206101;81;21284;-78
2021/01/18 07:47:07;;;;;;;99.73;37.10;;;;;;;-10.33;62.70;99480.38;2206440;81;21232;-78
2021/01/18 07:50:08;;;;;;;111.40;41.30;;;;;;;-10.37;62.87;99474.86;2206119;81;21256;-78
2021/01/18 07:53:09;;;;;;;94.17;34.47;;;;;;;-10.36;62.57;99476.27;2206510;81;21245;-78
2021/01/18 07:56:11;;;;;;;96.27;37.30;;;;;;;-10.42;62.47;99479.40;2207287;81;21862;-78
2021/01/18 07:59:12;;;;;;;96.63;38.87;;;;;;;-10.40;62.69;99475.80;2206036;81;21309;-77
2021/01/18 08:02:13;;;;;;;99.13;39.43;;;;;;;-10.24;63.22;99474.10;2205794;81;21256;-77
2021/01/18 08:05:14;;;;;;;90.53;30.93;;;;;;;-10.03;63.13;99473.72;2207011;81;21260;-77
2021/01/18 08:08:15;;;;;;;121.57;46.70;;;;;;;-9.88;62.45;99469.31;2206545;81;21252;-77
2021/01/18 08:11:16;;;;;;;112.60;44.23;;;;;;;-9.92;61.93;99469.73;2206894;80;21269;-77
2021/01/18 08:14:18;;;;;;;79.20;31.47;;;;;;;-9.89;62.29;99466.26;2206033;80;21724;-78
2021/01/18 08:17:19;;;;;;;83.00;36.17;;;;;;;-9.85;61.41;99469.61;2205738;81;21252;-78
2021/01/18 08:20:22;;;;;;;115.87;48.90;;;;;;;-9.76;61.91;99470.91;2206948;81;21177;-78
2021/01/18 08:23:23;;;;;;;136.33;56.30;;;;;;;-9.58;62.09;99470.58;2205996;81;21284;-78
2021/01/18 08:26:24;;;;;;;96.57;39.77;;;;;;;-9.42;61.87;99463.80;2205949;81;21681;-77
2021/01/18 08:29:25;;;;;;;94.70;37.27;;;;;;;-9.26;61.41;99472.14;2205547;81;21099;-77
2021/01/18 08:32:30;;;;;;;82.77;34.23;;;;;;;-9.17;60.82;99469.62;2199179;81;21566;-77
2021/01/18 08:35:31;;;;;;;78.90;31.00;;;;;;;-9.22;60.43;99474.23;2199017;81;21618;-77
2021/01/18 08:38:32;;;;;;;75.93;29.27;;;;;;;-9.20;60.09;99472.73;2199225;81;21483;-78
2021/01/18 08:41:33;;;;;;;89.67;35.57;;;;;;;-9.32;59.67;99472.80;2199058;81;21099;-78
2021/01/18 08:44:34;;;;;;;89.40;37.63;;;;;;;-9.26;60.53;99480.99;2199887;81;21302;-76
2021/01/18 08:47:35;;;;;;;85.73;34.97;;;;;;;-8.98;60.80;99474.83;2199927;81;21240;-77
2021/01/18 08:50:36;;;;;;;91.00;38.57;;;;;;;-8.79;60.21;99468.27;2199834;81;21763;-77
2021/01/18 08:53:37;;;;;;;83.67;36.47;;;;;;;-8.69;60.01;99469.30;2199540;81;21134;-77
2021/01/18 08:56:39;;;;;;;94.00;38.87;;;;;;;-8.52;59.50;99470.05;2199696;80;21126;-77
2021/01/18 08:59:40;;;;;;;87.47;36.27;;;;;;;-8.56;58.79;99474.30;2199146;81;21154;-78
2021/01/18 09:02:41;;;;;;;77.10;32.90;;;;;;;-8.56;58.94;99475.19;2199496;80;21622;-77
2021/01/18 09:05:42;;;;;;;89.43;36.70;;;;;;;-8.63;57.94;99479.52;2198275;81;21306;-76
2021/01/18 09:08:43;;;;;;;91.27;40.67;;;;;;;-8.64;58.38;99475.20;2200467;81;21269;-78
2021/01/18 09:11:45;;;;;;;84.63;34.73;;;;;;;-8.50;58.69;99477.03;2200315;81;21114;-78
2021/01/18 09:14:46;;;;;;;80.83;35.40;;;;;;;-8.30;58.54;99476.73;2200387;81;21103;-78
2021/01/18 09:17:47;;;;;;;90.47;37.97;;;;;;;-8.23;57.93;99481.63;2200288;81;21150;-78
2021/01/18 09:20:49;;;;;;;96.80;41.97;;;;;;;-8.25;57.79;99480.22;2199394;81;21495;-79
2021/01/18 09:23:50;;;;;;;75.73;33.23;;;;;;;-8.14;57.66;99483.76;2199245;81;21313;-77
2021/01/18 09:26:51;;;;;;;90.87;40.67;;;;;;;-8.05;57.15;99484.63;2198980;81;21277;-79
2021/01/18 09:29:52;;;;;;;101.57;44.23;;;;;;;-8.10;57.34;99468.09;2200090;81;21131;-78
2021/01/18 09:32:53;;;;;;;84.93;37.60;;;;;;;-8.09;57.07;99467.34;2206003;81;21276;-79
2021/01/18 09:35:54;;;;;;;88.20;39.73;;;;;;;-7.96;57.20;99469.02;2205678;81;21609;-78
2021/01/18 09:38:55;;;;;;;86.77;39.17;;;;;;;-7.92;56.88;99469.81;2206016;81;21272;-78
2021/01/18 09:41:56;;;;;;;90.67;41.80;;;;;;;-7.78;57.27;99460.98;2204915;81;21252;-78
2021/01/18 09:44:58;;;;;;;83.50;39.43;;;;;;;-7.65;57.15;99451.59;2206523;81;21749;-78
2021/01/18 09:47:59;;;;;;;82.70;40.33;;;;;;;-7.58;56.78;99448.87;2205716;81;21272;-78
2021/01/18 09:51:00;;;;;;;93.10;39.80;;;;;;;-7.51;56.87;99436.89;2206022;81;21240;-78
2021/01/18 09:54:01;;;;;;;84.60;38.10;;;;;;;-7.37;56.60;99430.91;2206349;81;21285;-78
2021/01/18 09:57:02;;;;;;;78.03;36.60;;;;;;;-7.28;56.30;99425.39;2204867;81;21272;-78
2021/01/18 10:00:03;;;;;;;93.63;44.50;;;;;;;-7.29;56.03;99425.77;2206372;81;21248;-78
2021/01/18 10:03:04;;;;;;;98.73;45.07;;;;;;;-7.25;56.05;99429.47;2206227;81;21308;-79
2021/01/18 10:06:05;;;;;;;82.17;38.63;;;;;;;-7.21;56.11;99419.73;2205894;81;21355;-79
2021/01/18 10:09:06;;;;;;;92.43;43.43;;;;;;;-7.14;55.77;99416.10;2205980;81;21340;-79
2021/01/18 10:12:07;;;;;;;91.57;41.13;;;;;;;-7.11;55.81;99410.92;2206409;81;21130;-78
2021/01/18 10:15:08;;;;;;;91.93;43.37;;;;;;;-7.24;55.27;99405.89;2206241;81;21253;-78
2021/01/18 10:18:09;;;;;;;80.57;36.97;;;;;;;-7.19;56.31;99406.81;2206429;81;21249;-77
2021/01/18 10:21:11;;;;;;;100.00;44.57;;;;;;;-7.09;55.42;99400.53;2206735;80;21296;-78
2021/01/18 10:24:12;;;;;;;96.27;44.57;;;;;;;-7.14;55.87;99400.50;2205961;81;21312;-78
2021/01/18 10:27:15;;;;;;;101.40;44.07;;;;;;;-6.95;55.79;99395.41;2205071;81;21261;-77
2021/01/18 10:30:16;;;;;;;100.53;45.33;;;;;;;-7.01;55.86;99392.70;2206078;81;21594;-78
2021/01/18 10:33:17;;;;;;;95.07;43.80;;;;;;;-6.86;56.12;99396.63;2205690;81;21279;-77
2021/01/18 10:36:18;;;;;;;90.40;42.20;;;;;;;-6.73;55.76;99394.40;2204569;81;22288;-78
2021/01/18 10:39:19;;;;;;;89.13;44.50;;;;;;;-6.63;55.56;99398.25;2205723;80;21979;-77
2021/01/18 10:42:20;;;;;;;89.60;40.60;;;;;;;-6.48;56.06;99391.06;2205367;81;21122;-77
2021/01/18 10:45:24;;;;;;;95.73;42.93;;;;;;;-6.38;55.88;99388.94;2205716;81;21284;-77
2021/01/18 10:48:25;;;;;;;86.13;40.53;;;;;;;-6.41;55.47;99387.02;2205181;81;21145;-78
2021/01/18 10:51:26;;;;;;;95.67;42.07;;;;;;;-6.41;55.76;99381.95;2206589;81;21261;-77
2021/01/18 10:54:27;;;;;;;92.30;41.00;;;;;;;-6.34;55.87;99382.09;2206660;80;21575;-77
2021/01/18 10:57:28;;;;;;;101.00;43.63;;;;;;;-6.29;55.84;99377.91;2205658;81;21134;-79
2021/01/18 11:00:29;;;;;;;90.80;43.17;;;;;;;-6.26;55.74;99373.47;2206955;80;21744;-80
2021/01/18 11:03:31;;;;;;;89.80;41.17;;;;;;;-6.20;56.06;99379.08;2206115;81;21292;-78
2021/01/18 11:06:32;;;;;;;82.47;41.10;;;;;;;-6.13;55.52;99373.38;2205999;81;21129;-77
2021/01/18 11:09:33;;;;;;;78.63;38.00;;;;;;;-6.11;55.60;99375.66;2206121;81;21302;-78
2021/01/18 11:12:34;;;;;;;102.50;45.73;;;;;;;-6.06;55.40;99384.98;2205457;81;21264;-77
2021/01/18 11:15:35;;;;;;;83.73;35.13;;;;;;;-6.03;55.39;99381.81;2205409;81;21253;-78
2021/01/18 11:18:36;;;;;;;105.87;47.30;;;;;;;-5.95;54.97;99377.88;2205647;81;21583;-78
2021/01/18 11:21:38;;;;;;;95.33;42.43;;;;;;;-5.99;55.10;99381.30;2206441;81;21308;-78
2021/01/18 11:24:39;;;;;;;81.03;36.37;;;;;;;-6.12;54.64;99379.34;2206377;81;21292;-79
2021/01/18 11:27:40;;;;;;;97.97;43.73;;;;;;;-6.28;53.92;99374.61;2206601;81;21269;-77
2021/01/18 11:30:41;;;;;;;98.87;44.57;;;;;;;-6.43;54.89;99378.00;2206178;81;21098;-76
2021/01/18 11:33:42;;;;;;;99.97;46.63;;;;;;;-6.33;55.15;99367.36;2206336;81;21241;-78
2021/01/18 11:36:43;;;;;;;98.37;47.20;;;;;;;-6.32;55.09;99370.41;2205078;81;21790;-77
2021/01/18 11:39:44;;;;;;;103.43;47.33;;;;;;;-6.18;55.27;99361.92;2206559;80;21122;-77
2021/01/18 11:42:45;;;;;;;106.33;45.17;;;;;;;-6.13;55.16;99361.05;2204746;81;21304;-77
2021/01/18 11:45:46;;;;;;;87.90;42.07;;;;;;;-6.10;54.93;99352.03;2206104;81;21276;-76
2021/01/18 11:48:48;;;;;;;88.57;40.80;;;;;;;-6.10;54.90;99365.12;2205416;81;21273;-77
2021/01/18 11:51:49;;;;;;;100.17;45.73;;;;;;;-6.19;54.77;99355.06;2206108;81;21280;-78
2021/01/18 11:54:50;;;;;;;95.40;46.97;;;;;;;-6.15;54.71;99351.13;2205917;81;21609;-76
2021/01/18 11:57:51;;;;;;;109.07;47.83;;;;;;;-6.06;55.24;99343.42;2205999;81;21467;-77
2021/01/18 12:00:52;;;;;;;101.60;46.57;;;;;;;-5.97;55.29;99336.57;2205832;81;21304;-78
2021/01/18 12:03:53;;;;;;;95.77;39.93;;;;;;;-5.84;55.14;99335.14;2206177;81;21605;-78
2021/01/18 12:06:54;;;;;;;92.87;43.23;;;;;;;-5.68;54.80;99331.32;2205662;81;21248;-77
2021/01/18 12:09:55;;;;;;;88.67;40.07;;;;;;;-5.75;54.68;99329.03;2205808;81;21253;-77
2021/01/18 12:12:58;;;;;;;86.23;37.73;;;;;;;-5.72;54.08;99328.91;2206061;81;21264;-77
2021/01/18 12:15:59;;;;;;;93.97;43.40;;;;;;;-6.02;53.54;99334.92;2205315;80;21585;-76
2021/01/18 12:19:01;;;;;;;100.43;44.17;;;;;;;-6.07;54.63;99331.06;2206183;81;21268;-78
2021/01/18 12:22:02;;;;;;;88.07;38.60;;;;;;;-5.97;54.63;99325.13;2206301;80;21256;-77
2021/01/18 12:25:03;;;;;;;91.67;38.87;;;;;;;-5.89;54.72;99326.23;2205484;81;21170;-78
2021/01/18 12:28:04;;;;;;;102.93;42.93;;;;;;;-5.92;54.61;99332.38;2205670;81;21126;-78
2021/01/18 12:31:05;;;;;;;97.73;42.30;;;;;;;-5.97;54.73;99336.19;2205378;81;21363;-78
2021/01/18 12:34:07;;;;;;;99.07;44.40;;;;;;;-5.91;54.70;99335.81;2205649;81;21268;-77
2021/01/18 12:37:08;;;;;;;89.93;38.43;;;;;;;-5.93;54.54;99331.87;2206616;80;21531;-78
2021/01/18 12:40:09;;;;;;;86.07;37.73;;;;;;;-5.95;54.43;99320.69;2205705;81;21248;-77
2021/01/18 12:43:10;;;;;;;94.20;42.03;;;;;;;-5.93;54.63;99325.52;2205807;80;21308;-78
2021/01/18 12:46:11;;;;;;;103.30;45.73;;;;;;;-6.01;54.50;99317.63;2205596;81;21178;-78
2021/01/18 12:49:12;;;;;;;98.63;42.97;;;;;;;-6.06;54.89;99310.00;2204696;81;21456;-77
2021/01/18 12:52:13;;;;;;;101.53;44.20;;;;;;;-6.02;55.13;99313.31;2204083;81;21145;-78
2021/01/18 12:55:14;;;;;;;92.10;41.93;;;;;;;-5.97;55.14;99312.04;2205705;80;21641;-77
2021/01/18 12:58:15;;;;;;;92.87;41.87;;;;;;;-5.92;54.98;99315.85;2205028;81;21244;-77
2021/01/18 13:01:16;;;;;;;95.87;42.60;;;;;;;-6.06;54.69;99308.73;2204982;81;21277;-78
2021/01/18 13:04:17;;;;;;;83.23;38.33;;;;;;;-6.11;54.91;99305.78;2203516;81;21297;-77
2021/01/18 13:07:18;;;;;;;87.87;40.70;;;;;;;-6.12;54.97;99304.38;2202525;81;21953;-77
2021/01/18 13:10:20;;;;;;;92.37;41.37;;;;;;;-6.13;55.17;99306.41;2203002;81;21240;-76
2021/01/18 13:13:22;;;;;;;97.60;44.40;;;;;;;-6.21;54.92;99306.16;2204225;81;21625;-78
2021/01/18 13:16:24;;;;;;;94.73;41.13;;;;;;;-6.18;55.28;99308.95;2204561;80;21245;-77
2021/01/18 13:19:25;;;;;;;117.23;50.27;;;;;;;-6.14;55.34;99302.09;2205310;81;21280;-77
2021/01/18 13:22:26;;;;;;;106.23;44.33;;;;;;;-6.09;55.50;99298.28;2204835;81;21280;-78
2021/01/18 13:25:28;;;;;;;94.77;40.63;;;;;;;-6.02;55.41;99303.14;2205646;81;21126;-79
2021/01/18 13:28:29;;;;;;;89.97;41.93;;;;;;;-5.98;55.49;99300.09;2205662;81;21256;-78
2021/01/18 13:31:30;;;;;;;96.13;42.30;;;;;;;-6.01;55.53;99297.68;2205183;81;21288;-77
2021/01/18 13:34:31;;;;;;;104.67;43.43;;;;;;;-6.08;55.29;99289.89;2204995;81;21244;-75
2021/01/18 13:37:32;;;;;;;95.93;41.97;;;;;;;-6.25;55.28;99290.14;2205075;81;21245;-78
2021/01/18 13:40:33;;;;;;;112.87;43.57;;;;;;;-6.38;55.23;99293.68;2204746;80;21248;-77
2021/01/18 13:43:34;;;;;;;99.67;41.73;;;;;;;-6.51;55.46;99296.45;2206339;81;21288;-76